»·PEaware :: AAL6295 KPHX-KABQ

AAL6295 :: KPHX-KABQ

FLIGHT INFORMATION

Flight Status: Arrived
Operator:
American Airlines
More flights by this operator :: More flights under this callsign
Pilot: Antonio A. (14008)
Aircraft: CANADAIR CL-600 CRJ-700
(CRJ7)
More flights by this aircraft type
Origin: KPHX Phoenix Sky Harbor Intl
United States
Destination: KABQ Albuquerque Intl Sunport
United States
More flights between these airports :: More routes between these airports
Route: +LALUZ5 SJN CABNO KRKEE3
File this flight plan on PilotEdge
Remarks: aal6295 is / L
Altitude:
(Current/Filed)
250ft
Speed:
(Current/Filed)
330kts
Departed: 08-Oct-17 12:27 PM
Arrived: 08-Oct-17 01:14 PM
Distance/Time
Traveled:
284nm/0:47
Distance/Time
To Go:
Arrived

Flight Plot

Page will automatically refresh every two minutes.

Flight plan parsing failed; only flown route is shown


Map Options




Map Legend


Flown Route
Filed Route
Departure Airport
Arrival Airport
Navaid (VOR, NDB)
Fix

Horizontal Profiles

Position Reports

Time Latitude Longitude Heading Altitude Ground
Speed
08-Oct-17 11:51 33.433080 -112.013603 357 1142ft 0kts
08-Oct-17 11:52 33.433080 -112.013603 357 1142ft 0kts
08-Oct-17 11:53 33.433080 -112.013603 357 1142ft 0kts
08-Oct-17 11:54 33.433080 -112.013603 357 1142ft 0kts
08-Oct-17 11:55 33.433080 -112.013603 357 1142ft 0kts
08-Oct-17 11:56 33.433080 -112.013603 357 1142ft 0kts
08-Oct-17 11:57 33.433080 -112.013603 357 1142ft 0kts
08-Oct-17 11:58 33.433080 -112.013603 357 1142ft 0kts
08-Oct-17 11:59 33.433080 -112.013603 357 1142ft 0kts
08-Oct-17 12:00 33.433080 -112.013603 357 1142ft 0kts
08-Oct-17 12:01 33.433080 -112.013603 357 1142ft 0kts
08-Oct-17 12:02 33.433080 -112.013603 357 1142ft 0kts
08-Oct-17 12:03 33.433080 -112.013603 357 1142ft 0kts
08-Oct-17 12:04 33.433080 -112.013603 357 1142ft 0kts
08-Oct-17 12:05 33.433080 -112.013603 357 1142ft 0kts
08-Oct-17 12:06 33.433080 -112.013603 357 1142ft 0kts
08-Oct-17 12:07 33.433080 -112.013603 357 1142ft 0kts
08-Oct-17 12:08 33.433080 -112.013603 357 1142ft 0kts
08-Oct-17 12:09 33.433080 -112.013603 357 1142ft 0kts
08-Oct-17 12:10 33.433080 -112.013603 357 1142ft 0kts
08-Oct-17 12:11 33.433080 -112.013603 357 1142ft 0kts
08-Oct-17 12:12 33.433080 -112.013603 357 1142ft 0kts
08-Oct-17 12:13 33.433080 -112.013603 357 1142ft 0kts
08-Oct-17 12:14 33.433080 -112.013603 357 1142ft 0kts
08-Oct-17 12:15 33.433080 -112.013603 357 1142ft 0kts
08-Oct-17 12:16 33.433080 -112.013603 357 1142ft 0kts
08-Oct-17 12:17 33.433080 -112.013603 357 1142ft 0kts
08-Oct-17 12:18 33.433080 -112.013603 357 1142ft 0kts
08-Oct-17 12:19 33.433080 -112.013603 357 1142ft 0kts
08-Oct-17 12:20 33.433080 -112.013603 357 1142ft 0kts
08-Oct-17 12:21 33.433080 -112.013603 357 1142ft 0kts
08-Oct-17 12:22 33.433080 -112.013603 357 1142ft 0kts
08-Oct-17 12:23 33.433080 -112.013603 357 1142ft 0kts
08-Oct-17 12:24 33.432826 -112.013591 357 1142ft 2kts
08-Oct-17 12:25 33.432541 -112.013578 357 1142ft 0kts
08-Oct-17 12:26 33.432545 -112.013578 357 1142ft 0kts
08-Oct-17 12:27 33.432874 -112.018658 270 1142ft 22kts
08-Oct-17 12:28 33.432515 -112.026846 180 1142ft 17kts
08-Oct-17 12:29 33.431748 -112.026883 180 1142ft 0kts
08-Oct-17 12:30 33.431747 -112.026883 180 1142ft 0kts
08-Oct-17 12:31 33.431102 -112.017344 89 1142ft 123kts
08-Oct-17 12:32 33.434216 -111.946776 83 2511ft 230kts
08-Oct-17 12:33 33.449995 -111.864192 67 4117ft 268kts
08-Oct-17 12:34 33.471600 -111.806671 63 5261ft 277kts
08-Oct-17 12:35 33.506176 -111.722505 62 6905ft 286kts
08-Oct-17 12:36 33.542297 -111.635059 62 8540ft 294kts
08-Oct-17 12:37 33.578843 -111.545547 62 10186ft 305kts
08-Oct-17 12:38 33.618198 -111.447712 61 11858ft 341kts
08-Oct-17 12:39 33.661690 -111.343272 61 13509ft 356kts
08-Oct-17 12:40 33.703363 -111.233375 63 15154ft 367kts
08-Oct-17 12:41 33.744347 -111.118738 65 16803ft 378kts
08-Oct-17 12:42 33.786104 -111.000926 64 18447ft 392kts
08-Oct-17 12:43 33.829918 -110.874190 65 20113ft 422kts
08-Oct-17 12:44 33.876747 -110.741742 64 21762ft 439kts
08-Oct-17 12:45 33.925183 -110.604657 66 23408ft 451kts
08-Oct-17 12:46 33.973340 -110.462674 65 24814ft 467kts
08-Oct-17 12:47 34.024621 -110.313492 65 24987ft 490kts
08-Oct-17 12:49 34.077355 -110.160289 65 25015ft 495kts
08-Oct-17 12:50 34.130215 -110.006791 65 25033ft 496kts
08-Oct-17 12:51 34.183182 -109.852963 65 25028ft 496kts
08-Oct-17 12:52 34.236285 -109.698567 65 25012ft 496kts
08-Oct-17 12:53 34.288861 -109.544725 66 24976ft 496kts
08-Oct-17 12:54 34.341370 -109.390127 66 24956ft 495kts
08-Oct-17 12:55 34.393734 -109.236188 66 24946ft 495kts
08-Oct-17 12:55 34.426365 -109.103256 79 24956ft 498kts
08-Oct-17 12:57 34.452869 -108.909834 80 24961ft 498kts
08-Oct-17 12:57 34.470793 -108.771896 80 24954ft 498kts
08-Oct-17 12:59 34.494362 -108.577646 80 24959ft 499kts
08-Oct-17 13:00 34.518177 -108.418369 77 24025ft 449kts
08-Oct-17 13:00 34.538677 -108.299732 76 22677ft 420kts
08-Oct-17 13:01 34.562467 -108.162915 77 21156ft 406kts
08-Oct-17 13:03 34.588775 -108.008572 77 20955ft 401kts
08-Oct-17 13:03 34.607408 -107.897681 77 20955ft 401kts
08-Oct-17 13:04 34.639498 -107.769119 63 20101ft 391kts
08-Oct-17 13:05 34.686883 -107.654878 59 18564ft 370kts
08-Oct-17 13:06 34.734469 -107.545728 59 17024ft 360kts
08-Oct-17 13:07 34.780324 -107.439296 60 15489ft 351kts
08-Oct-17 13:08 34.824673 -107.335327 60 14133ft 338kts
08-Oct-17 13:09 34.867616 -107.233526 60 13007ft 341kts
08-Oct-17 13:10 34.909865 -107.132955 60 11194ft 325kts
08-Oct-17 13:11 34.950013 -107.038262 60 9993ft 289kts
08-Oct-17 13:12 34.982151 -106.953388 66 9015ft 271kts
08-Oct-17 13:13 35.007165 -106.869597 72 8012ft 251kts
08-Oct-17 13:14 35.029352 -106.791349 71 6619ft 226kts
08-Oct-17 13:15 35.045550 -106.730880 90 6296ft 161kts
08-Oct-17 13:16 35.044716 -106.676475 90 5667ft 150kts
08-Oct-17 13:17 35.044384 -106.626250 90 5491ft 151kts
08-Oct-17 13:18 35.044279 -106.604711 92 5362ft 16kts
08-Oct-17 13:19 35.045021 -106.602379 300 5362ft 14kts
08-Oct-17 13:20 35.045808 -106.609110 268 5362ft 24kts
08-Oct-17 13:21 35.046041 -106.617372 270 5362ft 19kts
08-Oct-17 13:22 35.048249 -106.618018 195 5362ft 15kts
08-Oct-17 13:23 35.047844 -106.618176 181 5362ft 0kts
08-Oct-17 13:24 35.047844 -106.618176 181 5362ft 0kts
08-Oct-17 13:25 35.047844 -106.618176 181 5362ft 0kts
08-Oct-17 13:26 35.047844 -106.618176 181 5362ft 0kts
08-Oct-17 13:27 35.047844 -106.618176 181 5362ft 0kts
08-Oct-17 13:28 35.047844 -106.618176 181 5362ft 0kts
08-Oct-17 13:29 33.433080 -112.013603 357 1142ft 0kts
08-Oct-17 13:30 35.047846 -106.618175 181 5362ft 0kts

Navigation Log

Ident Type
Flight plan parsing failed, navigation log unavailable